Time;durP1;ratioP1;P1;durP2;ratioP2;P2;SDS_P1;SDS_P2;PMS_P1;PMS_P2;Temp;Humidity;BMP_temperature;BMP_pressure;BME280_temperature;BME280_humidity;BME280_pressure;Samples;Min_cycle;Max_cycle;Signal;HPM_P1;HPM_P2
2022/10/30 00:01:56;;;;;;;7.60;5.97;;;19.10;98.30;;;;;;4801299;29;20444;-83
2022/10/30 00:09:00;;;;;;;;;;;;;;;;;;;;;
2022/10/30 00:11:45;;;;;;;9.63;5.70;;;18.90;98.60;;;;;;4751703;30;20466;-84
2022/10/30 00:14:34;;;;;;;8.03;5.57;;;19.20;98.00;;;;;;4694477;30;20489;-84
2022/10/30 00:18:14;;;;;;;9.47;6.10;;;19.20;97.80;;;;;;4702974;30;20481;-82
2022/10/30 00:22:09;;;;;;;9.00;6.17;;;19.10;98.30;;;;;;4732503;30;20953;-84
2022/10/30 00:32:29;;;;;;;11.17;5.57;;;19.00;98.50;;;;;;4720920;30;20847;-84
2022/10/30 00:35:18;;;;;;;;;;;;;;;;;;;;;
2022/10/30 00:42:31;;;;;;;9.60;5.80;;;19.10;98.30;;;;;;4791335;29;20450;-85
2022/10/30 00:45:47;;;;;;;9.70;5.83;;;19.00;98.50;;;;;;4793137;29;20503;-84
2022/10/30 00:52:25;;;;;;;12.70;7.03;;;18.70;99.10;;;;;;4824160;29;20432;-84
2022/10/30 01:02:10;;;;;;;9.53;6.40;;;19.00;98.60;;;;;;764655;26;21447;-84
2022/10/30 01:05:24;;;;;;;8.90;6.30;;;19.00;98.50;;;;;;4989262;28;20863;-86
2022/10/30 01:08:03;;;;;;;9.50;6.87;;;18.90;98.40;;;;;;4982392;28;21215;-85
2022/10/30 01:19:07;;;;;;;8.97;5.50;;;18.40;99.50;;;;;;3548635;23;20492;-85
2022/10/30 01:22:05;;;;;;;7.63;5.50;;;18.70;99.30;;;;;;4977806;28;20465;-85
2022/10/30 01:25:16;;;;;;;8.30;5.57;;;18.60;99.30;;;;;;4962410;28;20459;-85
2022/10/30 01:28:01;;;;;;;9.17;5.93;;;18.80;99.30;;;;;;4967414;28;20451;-84
2022/10/30 01:30:56;;;;;;;15.43;7.60;;;18.80;98.90;;;;;;4954282;28;20484;-85
2022/10/30 01:33:29;;;;;;;7.07;5.50;;;19.00;98.90;;;;;;4946858;29;20557;-83
2022/10/30 01:36:15;;;;;;;7.93;5.80;;;18.90;98.80;;;;;;4975907;28;20528;-85
2022/10/30 01:38:58;;;;;;;15.33;6.50;;;18.90;98.70;;;;;;4974253;28;20909;-86
2022/10/30 01:41:28;;;;;;;7.93;5.10;;;18.80;98.80;;;;;;4954588;28;20958;-86
2022/10/30 01:44:01;;;;;;;9.77;6.20;;;18.70;99.10;;;;;;4960140;29;20448;-83
2022/10/30 01:46:58;;;;;;;9.73;6.30;;;18.40;99.50;;;;;;4958156;28;20483;-84
2022/10/30 01:50:18;;;;;;;;;;;;;;;;;;;;;
2022/10/30 01:57:06;;;;;;;9.23;6.30;;;18.40;99.90;;;;;;4945375;28;20453;-83
2022/10/30 02:00:58;;;;;;;11.10;5.80;;;18.20;99.90;;;;;;4829770;29;20486;-83
2022/10/30 02:03:58;;;;;;;13.20;6.20;;;18.10;99.90;;;;;;4864037;29;20462;-86
2022/10/30 02:10:23;;;;;;;8.63;5.87;;;18.00;99.90;;;;;;4982148;23;20493;-84
2022/10/30 02:14:00;;;;;;;7.27;5.70;;;18.10;99.90;;;;;;5001452;28;20521;-83
2022/10/30 02:17:21;;;;;;;9.33;5.93;;;18.30;99.90;;;;;;4986378;28;20523;-85
2022/10/30 02:20:44;;;;;;;9.23;5.87;;;18.30;99.90;;;;;;4956408;28;20490;-84
2022/10/30 02:23:45;;;;;;;8.57;6.13;;;18.20;99.90;;;;;;4995349;28;20463;-83
2022/10/30 02:26:34;;;;;;;8.47;6.10;;;18.10;99.90;;;;;;4960629;28;20511;-85
2022/10/30 02:29:30;;;;;;;11.90;6.37;;;18.10;99.90;;;;;;4974250;28;20709;-80
2022/10/30 02:32:30;;;;;;;10.27;5.80;;;18.00;99.90;;;;;;4994218;28;20466;-83
2022/10/30 02:35:42;;;;;;;7.57;6.17;;;17.70;99.90;;;;;;4906183;29;20442;-83
2022/10/30 02:38:30;;;;;;;14.50;7.10;;;17.90;99.90;;;;;;4919088;29;20465;-83
2022/10/30 02:41:13;;;;;;;9.53;6.90;;;17.70;99.90;;;;;;4939800;29;20484;-81
2022/10/30 02:43:57;;;;;;;9.00;6.23;;;17.60;99.90;;;;;;4915858;29;20442;-82
2022/10/30 02:50:17;;;;;;;10.10;5.43;;;17.70;99.90;;;;;;4859062;29;20557;-83
2022/10/30 02:53:27;;;;;;;7.60;5.63;;;17.90;99.90;;;;;;4865563;29;20464;-85
2022/10/30 02:56:36;;;;;;;7.67;5.93;;;17.90;99.90;;;;;;4819737;29;20453;-85
2022/10/30 03:00:02;;;;;;;10.73;5.60;;;17.90;99.90;;;;;;4865514;29;20505;-85
2022/10/30 03:03:38;;;;;;;10.33;5.60;;;17.60;99.90;;;;;;4851739;29;20499;-85
2022/10/30 03:06:17;;;;;;;8.47;5.80;;;17.60;99.90;;;;;;4867647;29;20485;-83
2022/10/30 03:23:13;;;;;;;;;;;;;;;;;;;;;
2022/10/30 03:26:31;;;;;;;;;;;;;;;;;;;;;
2022/10/30 03:29:17;;;;;;;7.10;6.30;;;17.70;99.90;;;;;;4873670;29;20495;-83
2022/10/30 03:32:08;;;;;;;9.37;6.80;;;17.60;99.90;;;;;;4878191;29;20962;-85
2022/10/30 03:36:03;;;;;;;8.17;5.37;;;17.70;99.90;;;;;;4946945;28;20452;-84
2022/10/30 03:39:12;;;;;;;10.83;5.63;;;17.60;99.90;;;;;;4933767;29;20491;-84
2022/10/30 03:45:53;;;;;;;9.37;6.00;;;17.30;99.90;;;;;;4963982;29;20521;-85
2022/10/30 03:48:53;;;;;;;9.60;6.50;;;17.40;99.90;;;;;;4942816;28;20468;-84
2022/10/30 03:52:13;;;;;;;11.23;7.80;;;17.40;99.90;;;;;;4965576;28;20459;-83
2022/10/30 03:55:18;;;;;;;;;;;;;;;;;;;;;
2022/10/30 03:58:17;;;;;;;12.00;6.13;;;17.20;99.90;;;;;;4943178;29;20472;-84
2022/10/30 04:01:21;;;;;;;10.03;6.17;;;17.20;99.90;;;;;;4961603;28;20484;-83
2022/10/30 04:04:47;;;;;;;10.00;6.17;;;17.10;99.90;;;;;;4915232;28;20425;-82
2022/10/30 04:08:01;;;;;;;7.07;5.17;;;16.90;99.90;;;;;;4972347;28;20423;-84
2022/10/30 04:11:02;;;;;;;8.87;6.40;;;16.90;99.90;;;;;;4973361;28;20472;-83
2022/10/30 04:13:57;;;;;;;9.23;5.67;;;16.90;99.90;;;;;;4969425;28;20551;-84
2022/10/30 04:17:06;;;;;;;8.90;5.13;;;16.80;99.90;;;;;;4891004;29;20458;-84
2022/10/30 04:23:24;;;;;;;7.50;6.10;;;16.90;99.90;;;;;;5016551;28;20469;-83
2022/10/30 04:26:35;;;;;;;10.83;6.10;;;17.10;99.90;;;;;;4992580;28;20471;-83
2022/10/30 04:30:34;;;;;;;6.47;5.77;;;17.20;99.90;;;;;;4991252;28;20469;-84
2022/10/30 04:33:33;;;;;;;10.83;5.50;;;17.10;99.90;;;;;;4951022;28;20490;-84
2022/10/30 04:36:43;;;;;;;9.63;6.63;;;16.90;99.90;;;;;;4971175;28;20445;-84
2022/10/30 04:40:09;;;;;;;8.50;5.97;;;16.80;99.90;;;;;;4998100;28;21030;-84
2022/10/30 04:43:36;;;;;;;11.60;6.03;;;17.00;99.90;;;;;;5008332;28;20505;-83
2022/10/30 04:46:30;;;;;;;8.80;5.83;;;17.10;99.90;;;;;;4998689;28;20532;-83
2022/10/30 04:49:36;;;;;;;6.37;5.77;;;17.20;99.90;;;;;;5001591;28;20509;-84
2022/10/30 04:52:18;;;;;;;9.13;6.60;;;17.20;99.90;;;;;;5006076;28;20454;-85
2022/10/30 04:55:41;;;;;;;;;;;;;;;;;;;;;
2022/10/30 04:58:51;;;;;;;9.63;6.77;;;17.20;99.90;;;;;;4976562;28;20439;-84
2022/10/30 05:02:35;;;;;;;9.87;6.43;;;17.00;99.90;;;;;;4903515;29;20988;-85
2022/10/30 05:05:46;;;;;;;9.90;6.50;;;16.90;99.90;;;;;;4899222;29;21078;-84
2022/10/30 05:08:31;;;;;;;7.70;5.53;;;17.10;99.90;;;;;;4881898;29;20466;-84
2022/10/30 05:11:10;;;;;;;9.47;6.03;;;17.20;99.90;;;;;;4883931;29;20461;-83
2022/10/30 05:17:30;;;;;;;12.93;6.37;;;17.10;99.90;;;;;;4897888;29;20459;-84
2022/10/30 05:20:28;;;;;;;8.13;5.50;;;17.00;99.90;;;;;;4954121;28;20487;-84
2022/10/30 05:23:17;;;;;;;9.13;6.10;;;17.00;99.90;;;;;;4983812;28;20446;-86
2022/10/30 05:26:14;;;;;;;10.23;7.40;;;17.00;99.90;;;;;;5001690;28;20478;-85
2022/10/30 05:33:32;;;;;;;7.43;6.67;;;16.70;99.90;;;;;;5007156;28;20442;-84
2022/10/30 05:40:38;;;;;;;8.60;6.57;;;16.80;99.90;;;;;;4963953;28;20522;-83
2022/10/30 05:43:21;;;;;;;8.40;6.37;;;16.60;99.90;;;;;;5003837;28;20461;-83
2022/10/30 05:46:08;;;;;;;8.60;5.87;;;16.60;99.90;;;;;;5010905;28;20505;-86
2022/10/30 05:49:45;;;;;;;7.40;6.70;;;16.60;99.90;;;;;;4999325;28;20973;-85
2022/10/30 05:53:14;;;;;;;10.93;5.73;;;16.60;99.90;;;;;;4957814;28;20504;-85
2022/10/30 05:56:11;;;;;;;15.03;6.30;;;16.60;99.90;;;;;;5000039;28;20691;-84
2022/10/30 05:59:07;;;;;;;13.30;6.93;;;16.70;99.90;;;;;;4995068;28;20426;-85
2022/10/30 06:02:06;;;;;;;8.47;6.70;;;16.60;99.90;;;;;;4991479;28;20450;-85
2022/10/30 06:04:48;;;;;;;11.37;8.10;;;16.40;99.90;;;;;;4991594;28;20533;-85
2022/10/30 06:07:55;;;;;;;10.57;7.10;;;16.40;99.90;;;;;;4985162;28;20482;-83
2022/10/30 06:14:22;;;;;;;11.37;6.50;;;16.20;99.90;;;;;;4934800;29;20495;-85
2022/10/30 06:17:52;;;;;;;;;;;;;;;;;;;;;
2022/10/30 06:23:16;;;;;;;8.80;6.70;;;16.50;99.90;;;;;;4998271;28;20484;-84
2022/10/30 06:33:40;;;;;;;10.63;6.63;;;16.10;99.90;;;;;;4925959;29;20438;-82
2022/10/30 06:36:29;;;;;;;7.40;5.63;;;16.00;99.90;;;;;;4891043;29;20536;-84
2022/10/30 06:39:32;;;;;;;7.47;5.60;;;16.00;99.90;;;;;;4916833;29;20454;-83
2022/10/30 06:46:38;;;;;;;11.97;5.97;;;16.00;99.90;;;;;;4835836;29;20426;-84
2022/10/30 06:49:41;;;;;;;;;;;;;;;;;;;;;
2022/10/30 07:00:00;;;;;;;15.97;6.80;;;16.40;99.90;;;;;;4816785;29;20458;-81
2022/10/30 07:03:07;;;;;;;8.90;6.60;;;16.90;99.90;;;;;;4844979;29;20449;-83
2022/10/30 07:06:02;;;;;;;8.70;7.07;;;17.40;99.90;;;;;;4863538;29;20466;-84
2022/10/30 07:08:43;;;;;;;11.10;6.03;;;17.70;99.90;;;;;;4853681;29;20517;-85
2022/10/30 07:11:28;;;;;;;7.57;6.07;;;18.40;99.80;;;;;;4862905;29;20572;-85
2022/10/30 07:14:42;;;;;;;10.13;7.13;;;18.50;98.80;;;;;;4831675;29;20933;-84
2022/10/30 07:17:26;;;;;;;11.80;6.60;;;18.50;99.50;;;;;;4808084;29;20534;-85
2022/10/30 07:20:09;;;;;;;12.83;7.50;;;18.70;99.40;;;;;;4867075;29;20499;-86
2022/10/30 07:25:37;;;;;;;10.27;6.60;;;19.40;98.60;;;;;;5077449;23;20503;-85
2022/10/30 08:13:09;;;;;;;8.77;7.00;;;17.30;99.90;;;;;;4977818;28;20615;-86
2022/10/30 08:24:40;;;;;;;;;;;;;;;;;;;;;
2022/10/30 08:28:10;;;;;;;11.53;7.20;;;17.50;99.90;;;;;;4976211;28;20591;-83
2022/10/30 08:38:48;;;;;;;;;;;;;;;;;;;;;
2022/10/30 08:42:13;;;;;;;7.53;5.80;;;17.70;99.90;;;;;;4925899;29;20517;-84
2022/10/30 08:49:36;;;;;;;12.77;6.17;;;17.50;99.90;;;;;;5152778;23;20582;-84
2022/10/30 08:52:25;;;;;;;;;;;;;;;;;;;;;
2022/10/30 08:59:13;;;;;;;10.77;6.13;;;17.70;99.90;;;;;;4978358;28;20443;-86
2022/10/30 09:05:41;;;;;;;9.00;6.07;;;18.30;99.60;;;;;;4948860;28;20450;-83
2022/10/30 09:08:29;;;;;;;11.50;5.80;;;18.20;99.30;;;;;;4982784;28;20463;-83
2022/10/30 09:11:47;;;;;;;10.27;6.17;;;18.10;99.30;;;;;;4950115;28;20510;-86
2022/10/30 09:14:38;;;;;;;9.07;5.80;;;18.30;99.30;;;;;;5001798;28;20432;-84
2022/10/30 09:22:38;;;;;;;10.50;4.93;;;18.10;99.60;;;;;;5006172;28;20525;-83
2022/10/30 09:29:56;;;;;;;9.33;5.97;;;18.30;99.40;;;;;;4975792;28;20477;-83
2022/10/30 09:37:08;;;;;;;7.77;5.30;;;19.80;96.90;;;;;;4857366;29;20460;-84
2022/10/30 09:52:23;;;;;;;7.67;5.70;;;23.60;87.00;;;;;;4770749;30;20484;-84
2022/10/30 09:59:35;;;;;;;7.47;6.30;;;22.50;90.00;;;;;;4906032;29;20454;-84
2022/10/30 10:02:58;;;;;;;8.00;5.20;;;21.90;90.80;;;;;;4894331;29;20467;-83
2022/10/30 10:06:45;;;;;;;;;;;;;;;;;;;;;
2022/10/30 10:10:18;;;;;;;7.90;5.03;;;20.70;93.10;;;;;;4997819;28;20470;-83
2022/10/30 10:13:25;;;;;;;6.97;5.23;;;20.60;93.70;;;;;;4958001;28;20430;-83
2022/10/30 10:24:15;;;;;;;9.13;5.40;;;20.60;94.10;;;;;;5022421;28;20430;-83
2022/10/30 10:42:51;;;;;;;7.87;5.20;;;20.70;94.30;;;;;;4913443;29;20478;-85
2022/10/30 10:46:45;;;;;;;;;;;;;;;;;;;;;
2022/10/30 10:55:35;;;;;;;;;;;;;;;;;;;;;
2022/10/30 11:22:13;;;;;;;11.17;4.87;;;21.20;93.50;;;;;;4979695;28;20475;-84
2022/10/30 11:25:52;;;;;;;6.67;4.77;;;21.40;93.20;;;;;;4954399;28;20435;-85
2022/10/30 11:29:46;;;;;;;6.47;4.80;;;21.50;93.30;;;;;;4913074;29;21076;-84
2022/10/30 11:32:48;;;;;;;6.07;4.13;;;21.60;92.80;;;;;;4857785;29;20447;-83
2022/10/30 11:35:41;;;;;;;7.97;4.50;;;21.80;92.40;;;;;;4858766;29;20505;-84
2022/10/30 11:42:22;;;;;;;7.53;4.60;;;21.50;92.50;;;;;;4823291;29;20442;-84
2022/10/30 11:45:18;;;;;;;7.83;4.87;;;21.70;92.20;;;;;;4874310;29;20459;-84
2022/10/30 11:52:35;;;;;;;8.10;4.80;;;21.80;92.00;;;;;;4876832;29;20543;-85
2022/10/30 11:55:36;;;;;;;10.90;5.70;;;21.80;92.10;;;;;;4814662;29;20458;-85
2022/10/30 11:58:49;;;;;;;4.70;3.93;;;22.10;91.80;;;;;;4833480;29;20461;-84
2022/10/30 12:05:33;;;;;;;5.90;4.30;;;22.40;91.00;;;;;;4823445;29;20455;-83
2022/10/30 12:08:50;;;;;;;;;;;;;;;;;;;;;
2022/10/30 12:12:11;;;;;;;9.43;5.30;;;22.20;91.20;;;;;;4886327;29;20475;-84
2022/10/30 12:15:48;;;;;;;8.77;4.47;;;22.40;91.30;;;;;;4850403;29;20857;-83
2022/10/30 12:19:16;;;;;;;;;;;;;;;;;;;;;
2022/10/30 12:22:08;;;;;;;8.63;3.90;;;22.40;90.60;;;;;;4899315;29;20528;-85
2022/10/30 12:25:04;;;;;;;9.93;4.50;;;22.30;90.60;;;;;;4888679;29;20442;-84
2022/10/30 12:28:24;;;;;;;7.40;3.90;;;22.40;90.50;;;;;;4847653;29;21226;-83
2022/10/30 12:32:04;;;;;;;;;;;;;;;;;;;;;
2022/10/30 12:43:11;;;;;;;8.80;4.57;;;22.60;89.50;;;;;;4865178;29;20458;-82
2022/10/30 12:46:06;;;;;;;6.23;4.23;;;22.60;88.60;;;;;;4882594;29;20457;-81
2022/10/30 12:49:26;;;;;;;;;;;;;;;;;;;;;
2022/10/30 12:52:43;;;;;;;8.00;3.77;;;22.50;89.40;;;;;;4972404;28;20448;-85
2022/10/30 13:00:15;;;;;;;;;;;;;;;;;;;;;
2022/10/30 13:03:43;;;;;;;10.30;5.10;;;22.90;88.00;;;;;;4940865;29;20824;-84
2022/10/30 13:06:41;;;;;;;6.30;4.10;;;22.90;87.60;;;;;;4950343;29;20464;-84
2022/10/30 13:10:11;;;;;;;;;;;;;;;;;;;;;
2022/10/30 13:13:40;;;;;;;11.67;4.37;;;23.00;86.70;;;;;;4878785;29;20425;-84
2022/10/30 13:16:42;;;;;;;4.57;3.57;;;22.80;86.20;;;;;;4944786;29;20451;-84
2022/10/30 13:20:28;;;;;;;11.83;4.53;;;23.00;84.50;;;;;;4921625;29;20499;-83
2022/10/30 13:24:15;;;;;;;6.77;4.20;;;23.10;84.00;;;;;;4956680;29;20447;-84
2022/10/30 13:27:40;;;;;;;7.13;3.50;;;22.70;84.40;;;;;;4860856;29;21062;-83
2022/10/30 13:31:22;;;;;;;;;;;;;;;;;;;;;
2022/10/30 13:34:45;;;;;;;6.43;3.93;;;22.60;84.10;;;;;;4837720;29;20489;-84
2022/10/30 13:42:25;;;;;;;7.50;4.13;;;23.20;81.90;;;;;;4876139;29;20480;-84
2022/10/30 13:46:10;;;;;;;9.53;4.50;;;23.00;82.50;;;;;;4862028;29;20517;-83
2022/10/30 13:49:24;;;;;;;6.47;3.20;;;22.80;83.20;;;;;;4879124;29;20558;-84
2022/10/30 13:52:28;;;;;;;4.27;3.00;;;22.90;83.50;;;;;;4886799;29;21061;-84
2022/10/30 13:56:13;;;;;;;6.40;3.83;;;22.80;83.80;;;;;;4939270;29;20477;-85
2022/10/30 13:59:35;;;;;;;4.73;3.10;;;23.10;83.20;;;;;;4909924;29;20511;-83
2022/10/30 14:03:20;;;;;;;;;;;;;;;;;;;;;
2022/10/30 14:06:31;;;;;;;14.40;4.20;;;23.00;83.30;;;;;;4901575;29;20556;-83
2022/10/30 14:11:08;;;;;;;;;;;;;;;;;;;;;
2022/10/30 14:21:44;;;;;;;7.53;4.40;;;22.40;86.20;;;;;;4886464;29;20627;-83
2022/10/30 14:25:23;;;;;;;;;;;;;;;;;;;;;
2022/10/30 14:28:26;;;;;;;8.13;4.37;;;22.60;87.90;;;;;;4822406;29;20493;-84
2022/10/30 14:36:15;;;;;;;9.60;4.27;;;22.60;88.10;;;;;;4822881;29;20466;-84
2022/10/30 14:39:42;;;;;;;4.47;3.73;;;22.50;88.40;;;;;;4819829;29;20437;-84
2022/10/30 14:51:10;;;;;;;7.23;3.70;;;22.10;90.50;;;;;;4787958;29;20494;-84
2022/10/30 14:54:44;;;;;;;5.10;4.20;;;22.20;90.30;;;;;;4789767;29;20471;-84
2022/10/30 14:58:20;;;;;;;5.20;4.27;;;22.20;90.40;;;;;;4804799;29;20477;-85
2022/10/30 15:01:35;;;;;;;;;;;;;;;;;;;;;
2022/10/30 15:05:03;;;;;;;5.50;4.23;;;21.90;91.00;;;;;;4773685;30;20459;-84
2022/10/30 15:08:35;;;;;;;5.50;4.80;;;21.90;91.00;;;;;;4753517;29;20492;-82
2022/10/30 15:24:41;;;;;;;;;;;;;;;;;;;;;
2022/10/30 15:41:43;;;;;;;6.10;4.30;;;21.60;91.70;;;;;;4788916;29;20550;-84
2022/10/30 15:48:46;;;;;;;4.67;4.20;;;21.60;90.90;;;;;;4674134;30;20507;-84
2022/10/30 15:52:10;;;;;;;5.33;4.50;;;21.30;91.50;;;;;;4987375;23;20500;-83
2022/10/30 15:59:44;;;;;;;6.70;4.00;;;21.30;91.40;;;;;;4877187;29;20508;-83
2022/10/30 16:03:32;;;;;;;6.37;4.13;;;21.30;91.00;;;;;;4904961;29;20487;-84
2022/10/30 16:07:04;;;;;;;;;;;;;;;;;;;;;
2022/10/30 16:10:21;;;;;;;4.23;3.70;;;21.40;90.00;;;;;;4892504;29;20473;-85
2022/10/30 16:17:18;;;;;;;5.80;4.50;;;21.20;90.20;;;;;;4856297;29;20516;-83
2022/10/30 16:20:52;;;;;;;9.23;5.93;;;21.20;90.40;;;;;;4848518;29;20518;-84
2022/10/30 16:28:14;;;;;;;5.50;4.30;;;21.20;90.70;;;;;;4812901;29;20486;-83
2022/10/30 16:31:31;;;;;;;5.53;4.20;;;21.30;90.60;;;;;;4822328;29;20543;-83
2022/10/30 16:34:26;;;;;;;7.77;4.40;;;21.20;91.00;;;;;;4795674;29;20475;-83
2022/10/30 16:41:37;;;;;;;5.53;4.00;;;20.80;91.70;;;;;;4785295;29;20541;-84
2022/10/30 16:48:28;;;;;;;5.93;4.20;;;20.50;92.50;;;;;;4785310;29;20497;-84
2022/10/30 16:51:27;;;;;;;10.20;4.97;;;20.50;92.80;;;;;;4830084;29;20495;-84
2022/10/30 16:54:58;;;;;;;5.20;4.23;;;20.60;93.00;;;;;;4842709;29;20478;-83
2022/10/30 16:58:54;;;;;;;6.10;4.70;;;20.70;93.10;;;;;;4845794;29;20574;-84
2022/10/30 17:10:14;;;;;;;4.93;4.43;;;20.30;93.70;;;;;;4726658;30;20474;-84
2022/10/30 17:13:42;;;;;;;6.60;5.20;;;20.30;93.00;;;;;;4743182;30;20445;-83
2022/10/30 17:17:31;;;;;;;6.07;4.57;;;20.20;93.00;;;;;;4774796;29;20808;-81
2022/10/30 17:20:20;;;;;;;6.67;4.50;;;20.10;92.90;;;;;;4750071;30;20473;-83
2022/10/30 17:23:47;;;;;;;9.67;5.40;;;20.20;92.50;;;;;;4740317;30;20445;-83
2022/10/30 17:26:38;;;;;;;8.63;4.53;;;20.20;92.40;;;;;;4735400;30;20454;-85
2022/10/30 17:30:21;;;;;;;10.50;5.30;;;20.20;92.20;;;;;;4776984;29;20468;-83
2022/10/30 17:33:56;;;;;;;;;;;;;;;;;;;;;
2022/10/30 17:37:32;;;;;;;9.23;5.67;;;20.00;92.30;;;;;;4808126;29;20455;-85
2022/10/30 17:41:05;;;;;;;;;;;;;;;;;;;;;
2022/10/30 17:44:44;;;;;;;7.07;5.17;;;19.70;92.80;;;;;;4812179;29;20533;-84
2022/10/30 17:51:28;;;;;;;8.63;5.27;;;19.70;93.20;;;;;;4949064;28;20502;-84
2022/10/30 17:55:25;;;;;;;;;;;;;;;;;;;;;
2022/10/30 17:59:10;;;;;;;6.83;5.60;;;20.00;92.50;;;;;;4975996;28;20474;-85
2022/10/30 18:02:01;;;;;;;;;;;;;;;;;;;;;
2022/10/30 18:05:07;;;;;;;8.20;4.87;;;19.90;92.30;;;;;;4950044;28;20780;-83
2022/10/30 18:08:41;;;;;;;;;;;;;;;;;;;;;
2022/10/30 18:16:10;;;;;;;8.17;5.97;;;19.70;92.80;;;;;;4942632;29;20459;-84
2022/10/30 18:19:32;;;;;;;8.10;6.10;;;19.50;93.20;;;;;;4968832;28;20489;-84
2022/10/30 18:22:18;;;;;;;10.50;5.20;;;19.30;93.90;;;;;;4977921;28;20537;-85
2022/10/30 18:29:38;;;;;;;;;;;;;;;;;;;;;
2022/10/30 18:33:20;;;;;;;7.37;5.83;;;19.10;94.80;;;;;;4780395;29;20481;-85
2022/10/30 18:40:58;;;;;;;9.70;6.20;;;19.00;95.10;;;;;;4753027;30;20499;-84
2022/10/30 18:44:44;;;;;;;8.03;5.80;;;19.00;95.50;;;;;;4732233;30;20445;-86
2022/10/30 18:59:42;;;;;;;;;;;;;;;;;;;;;
2022/10/30 19:02:29;;;;;;;8.93;6.13;;;18.90;95.50;;;;;;4731638;30;20632;-86
2022/10/30 19:05:36;;;;;;;10.73;6.27;;;18.90;95.30;;;;;;4747442;30;20473;-86
2022/10/30 19:16:13;;;;;;;;;;;;;;;;;;;;;
2022/10/30 19:19:22;;;;;;;12.00;7.87;;;18.70;95.60;;;;;;4709803;30;20452;-85
2022/10/30 19:34:30;;;;;;;;;;;;;;;;;;;;;
2022/10/30 19:38:09;;;;;;;13.27;7.07;;;18.60;96.80;;;;;;4804029;29;20923;-84
2022/10/30 19:45:07;;;;;;;;;;;;;;;;;;;;;
2022/10/30 19:55:06;;;;;;;11.77;8.53;;;18.40;97.00;;;;;;4880838;29;20461;-83
2022/10/30 19:58:31;;;;;;;12.60;9.00;;;18.40;97.30;;;;;;4966881;28;20506;-84
2022/10/30 20:01:23;;;;;;;11.87;8.60;;;18.30;97.30;;;;;;4969250;28;20593;-84
2022/10/30 20:04:34;;;;;;;;;;;;;;;;;;;;;
2022/10/30 20:08:27;;;;;;;7.70;6.90;;;18.30;97.40;;;;;;4961777;29;20447;-85
2022/10/30 20:12:14;;;;;;;;;;;;;;;;;;;;;
2022/10/30 20:15:21;;;;;;;;;;;;;;;;;;;;;
2022/10/30 20:19:03;;;;;;;10.87;7.57;;;18.20;97.50;;;;;;4893098;29;20514;-85
2022/10/30 20:22:56;;;;;;;12.70;7.40;;;18.20;97.60;;;;;;4862890;29;20504;-84
2022/10/30 20:29:50;;;;;;;8.20;6.60;;;18.20;97.80;;;;;;4823686;29;20516;-82
2022/10/30 20:33:03;;;;;;;11.30;8.10;;;18.10;98.00;;;;;;4860296;29;20530;-82
2022/10/30 20:35:54;;;;;;;12.10;6.87;;;18.10;98.30;;;;;;4866016;29;20457;-84
2022/10/30 20:38:49;;;;;;;11.03;7.00;;;18.10;98.50;;;;;;4857065;29;20966;-84
2022/10/30 20:45:35;;;;;;;10.77;7.83;;;18.00;99.30;;;;;;4869276;29;21361;-83
2022/10/30 21:00:10;;;;;;;9.67;6.20;;;17.80;99.90;;;;;;4970937;28;20539;-84
2022/10/30 21:03:58;;;;;;;;;;;;;;;;;;;;;
2022/10/30 21:06:48;;;;;;;12.00;6.97;;;17.80;99.90;;;;;;4905684;29;20455;-84
2022/10/30 21:10:02;;;;;;;;;;;;;;;;;;;;;
2022/10/30 21:13:07;;;;;;;10.07;8.10;;;17.70;99.90;;;;;;4896371;29;20493;-85
2022/10/30 21:16:49;;;;;;;;;;;;;;;;;;;;;
2022/10/30 21:25:27;;;;;;;15.47;10.53;;;17.60;99.90;;;;;;4145711;23;20493;-86
2022/10/30 21:32:01;;;;;;;13.70;8.10;;;17.50;99.90;;;;;;5013863;28;20537;-85
2022/10/30 21:46:19;;;;;;;13.40;8.93;;;17.40;99.90;;;;;;4962263;28;20465;-82
2022/10/30 21:53:19;;;;;;;9.90;8.27;;;17.30;99.90;;;;;;4951152;29;20479;-85
2022/10/30 21:56:57;;;;;;;11.70;9.53;;;17.30;99.90;;;;;;4851466;29;20461;-86
2022/10/30 22:00:06;;;;;;;;;;;;;;;;;;;;;
2022/10/30 22:03:38;;;;;;;12.80;7.80;;;17.30;99.90;;;;;;4957105;29;20444;-84
2022/10/30 22:10:40;;;;;;;10.77;6.87;;;17.30;99.90;;;;;;5032213;23;21077;-84
2022/10/30 22:14:04;;;;;;;7.87;6.73;;;17.20;99.90;;;;;;4865632;29;20471;-83
2022/10/30 22:17:15;;;;;;;10.50;6.57;;;17.20;99.90;;;;;;4905029;29;20461;-83
2022/10/30 22:20:15;;;;;;;;;;;;;;;;;;;;;
2022/10/30 22:23:45;;;;;;;8.20;6.87;;;17.30;99.90;;;;;;4902490;29;20551;-85
2022/10/30 22:27:10;;;;;;;8.50;6.20;;;17.30;99.90;;;;;;4889040;29;20440;-84
2022/10/30 22:30:25;;;;;;;11.53;6.80;;;17.20;99.90;;;;;;4886220;29;20500;-84
2022/10/30 22:33:04;;;;;;;8.33;6.23;;;17.30;99.90;;;;;;4898642;29;20815;-83
2022/10/30 22:36:27;;;;;;;;;;;;;;;;;;;;;
2022/10/30 22:39:23;;;;;;;7.90;5.47;;;17.30;99.90;;;;;;4903385;29;20506;-82
2022/10/30 22:42:16;;;;;;;12.17;6.87;;;17.30;99.90;;;;;;4925982;29;20494;-83
2022/10/30 22:45:26;;;;;;;10.67;6.20;;;17.20;99.90;;;;;;4943924;29;20456;-83
2022/10/30 22:48:22;;;;;;;10.33;6.83;;;17.30;99.90;;;;;;4957245;29;20463;-82
2022/10/30 22:51:14;;;;;;;13.00;6.57;;;17.20;99.90;;;;;;4970735;28;20512;-83
2022/10/30 22:54:01;;;;;;;11.77;8.40;;;17.30;99.90;;;;;;4949271;29;20448;-83
2022/10/30 22:57:15;;;;;;;6.40;5.13;;;17.20;99.90;;;;;;4945625;28;20528;-83
2022/10/30 22:59:54;;;;;;;7.20;5.87;;;17.20;99.90;;;;;;4957261;28;20498;-83
2022/10/30 23:02:40;;;;;;;7.70;5.80;;;17.20;99.90;;;;;;4972208;28;20468;-81
2022/10/30 23:05:59;;;;;;;13.77;6.27;;;17.20;99.90;;;;;;4977581;28;20450;-83
2022/10/30 23:09:18;;;;;;;8.90;6.00;;;17.20;99.90;;;;;;4962859;28;20507;-83
2022/10/30 23:13:01;;;;;;;;;;;;;;;;;;;;;
2022/10/30 23:20:06;;;;;;;8.83;5.97;;;17.10;99.90;;;;;;4977497;28;20479;-85
2022/10/30 23:23:06;;;;;;;10.10;5.87;;;17.10;99.90;;;;;;4957193;28;20516;-84
2022/10/30 23:29:58;;;;;;;;;;;;;;;;;;;;;
2022/10/30 23:32:42;;;;;;;9.63;6.67;;;17.10;99.90;;;;;;4952225;29;20439;-83
2022/10/30 23:35:48;;;;;;;12.13;6.60;;;17.00;99.90;;;;;;4939331;29;20459;-84
2022/10/30 23:38:44;;;;;;;10.63;7.17;;;17.00;99.90;;;;;;4931850;29;20456;-83
2022/10/30 23:41:47;;;;;;;10.00;6.60;;;17.00;99.90;;;;;;4959540;29;20485;-84
2022/10/30 23:44:52;;;;;;;8.20;6.03;;;17.00;99.90;;;;;;4944314;29;20468;-84
2022/10/30 23:48:00;;;;;;;7.57;5.90;;;17.00;99.90;;;;;;4955129;28;20476;-84
2022/10/30 23:50:54;;;;;;;10.60;7.50;;;17.20;99.90;;;;;;4948615;28;20483;-83
2022/10/30 23:53:28;;;;;;;9.70;7.03;;;17.60;99.90;;;;;;4946003;29;20472;-84
2022/10/30 23:56:19;;;;;;;10.30;6.27;;;17.60;99.90;;;;;;4961800;29;20564;-84
2022/10/30 23:59:08;;;;;;;7.97;7.17;;;17.30;99.90;;;;;;4957115;28;20444;-84
